createdAt,value
2019-02-18T00:02:51.689Z,11.00
2019-02-18T00:07:56.997Z,11.20
2019-02-18T00:13:02.280Z,11.20
2019-02-18T00:18:07.566Z,10.70
2019-02-18T00:23:12.888Z,10.60
2019-02-18T00:28:18.185Z,10.40
2019-02-18T00:33:23.666Z,10.50
2019-02-18T00:38:29.095Z,10.60
2019-02-18T00:43:34.456Z,11.00
2019-02-18T00:48:39.956Z,11.20
2019-02-18T00:53:46.663Z,10.80
2019-02-18T00:58:53.046Z,10.70
2019-02-18T01:03:59.601Z,10.60
2019-02-18T01:09:05.716Z,10.40
2019-02-18T01:14:12.607Z,10.50
2019-02-18T01:19:17.901Z,10.50
2019-02-18T01:24:23.205Z,10.80
2019-02-18T01:29:28.505Z,11.00
2019-02-18T01:34:34.038Z,11.00
2019-02-18T01:39:39.340Z,11.00
2019-02-18T01:44:44.628Z,10.80
2019-02-18T01:49:49.925Z,10.60
2019-02-18T01:54:55.212Z,10.80
2019-02-18T02:00:00.602Z,10.80
2019-02-18T02:05:07.689Z,10.90
2019-02-18T02:10:14.900Z,10.90
2019-02-18T02:15:27.836Z,10.80
2019-02-18T02:20:33.204Z,10.30
2019-02-18T02:25:38.921Z,9.30
2019-02-18T02:30:44.225Z,9.50
2019-02-18T02:35:49.514Z,9.60
2019-02-18T02:40:54.883Z,9.90
2019-02-18T02:46:00.206Z,9.90
2019-02-18T02:51:05.923Z,9.60
2019-02-18T02:56:13.541Z,9.90
2019-02-18T03:01:18.915Z,9.90
2019-02-18T03:06:24.234Z,10.00
2019-02-18T03:11:29.548Z,10.20
2019-02-18T03:16:34.877Z,10.60
2019-02-18T03:21:40.171Z,10.80
2019-02-18T03:26:45.546Z,9.80
2019-02-18T03:31:50.851Z,9.50
2019-02-18T03:36:56.141Z,9.70
2019-02-18T03:42:01.441Z,9.80
2019-02-18T03:47:06.758Z,9.80
2019-02-18T03:52:12.155Z,10.00
2019-02-18T03:57:17.451Z,9.80
2019-02-18T04:02:22.744Z,9.50
2019-02-18T04:07:28.109Z,9.50
2019-02-18T04:12:33.393Z,9.70
2019-02-18T04:17:39.021Z,9.60
2019-02-18T04:22:44.290Z,9.60
2019-02-18T04:27:49.655Z,9.60
2019-02-18T04:32:54.929Z,9.80
2019-02-18T04:38:01.208Z,10.10
2019-02-18T04:43:06.521Z,10.00
2019-02-18T04:48:11.911Z,9.30
2019-02-18T04:53:17.302Z,9.20
2019-02-18T04:58:22.646Z,9.20
2019-02-18T05:03:27.939Z,9.50
2019-02-18T05:08:33.218Z,9.70
2019-02-18T05:13:38.553Z,10.00
2019-02-18T05:18:43.841Z,9.80
2019-02-18T05:23:49.419Z,9.60
2019-02-18T05:28:54.729Z,9.50
2019-02-18T05:34:00.093Z,9.40
2019-02-18T05:39:17.346Z,9.50
2019-02-18T05:44:13.532Z,9.90
2019-02-18T05:49:18.841Z,9.90
2019-02-18T05:54:24.123Z,9.70
2019-02-18T05:59:29.425Z,9.60
2019-02-18T06:04:34.805Z,9.80
2019-02-18T06:09:40.113Z,9.90
2019-02-18T06:14:45.410Z,10.00
2019-02-18T06:19:50.709Z,10.10
2019-02-18T06:24:56.023Z,9.70
2019-02-18T06:30:01.605Z,10.10
2019-02-18T06:35:07.345Z,10.70
2019-02-18T06:40:12.632Z,11.40
2019-02-18T06:45:35.722Z,12.30
2019-02-18T06:50:41.030Z,13.30
2019-02-18T06:55:46.334Z,14.20
2019-02-18T07:00:53.259Z,15.10
2019-02-18T07:06:00.201Z,16.10
2019-02-18T07:11:07.184Z,16.60
2019-02-18T07:16:12.452Z,17.00
2019-02-18T07:21:17.752Z,16.70
2019-02-18T07:26:23.057Z,17.60
2019-02-18T07:31:28.383Z,18.20
2019-02-18T07:36:35.037Z,17.80
2019-02-18T07:41:40.508Z,17.10
2019-02-18T07:46:45.798Z,16.60
2019-02-18T07:51:52.174Z,16.60
2019-02-18T07:56:57.481Z,16.80
2019-02-18T08:02:02.791Z,16.90
2019-02-18T08:07:08.074Z,17.10
2019-02-18T08:12:13.357Z,17.50
2019-02-18T08:17:18.665Z,18.20
2019-02-18T08:22:23.958Z,19.00
2019-02-18T08:27:29.508Z,19.10
2019-02-18T08:32:35.759Z,19.10
2019-02-18T08:37:41.066Z,18.50
2019-02-18T08:42:46.365Z,17.90
2019-02-18T08:47:51.686Z,18.00
2019-02-18T08:52:57.055Z,18.00
2019-02-18T08:58:02.341Z,18.40
2019-02-18T09:03:07.642Z,19.00
2019-02-18T09:08:13.655Z,19.50
2019-02-18T09:13:18.963Z,19.20
2019-02-18T09:18:24.317Z,16.50
2019-02-18T09:23:47.648Z,15.50
2019-02-18T09:28:53.041Z,15.60
2019-02-18T09:33:58.353Z,15.90
2019-02-18T09:39:04.815Z,16.50
2019-02-18T09:44:10.115Z,17.70
2019-02-18T09:49:15.422Z,18.90
2019-02-18T09:54:20.761Z,18.90
2019-02-18T09:59:26.037Z,20.30
2019-02-18T10:04:31.356Z,22.60
2019-02-18T10:09:36.737Z,23.60
2019-02-18T10:14:42.021Z,23.50
2019-02-18T10:19:47.402Z,23.50
2019-02-18T10:24:54.290Z,22.80
2019-02-18T10:30:01.379Z,21.70
2019-02-18T10:35:13.031Z,20.90
2019-02-18T10:40:18.337Z,20.90
2019-02-18T10:45:23.720Z,20.70
2019-02-18T10:50:29.995Z,20.70
2019-02-18T10:55:35.706Z,21.00
2019-02-18T11:00:41.019Z,21.40
2019-02-18T11:05:46.360Z,20.70
2019-02-18T11:10:51.651Z,20.10
2019-02-18T11:15:56.977Z,20.60
2019-02-18T11:21:03.340Z,21.00
2019-02-18T11:26:08.646Z,21.40
2019-02-18T11:31:13.955Z,21.60
2019-02-18T11:36:19.706Z,21.90
2019-02-18T11:41:27.449Z,21.80
2019-02-18T11:46:32.069Z,21.90
2019-02-18T11:51:37.348Z,21.70
2019-02-18T11:56:42.652Z,21.60
2019-02-18T12:01:47.961Z,21.90
2019-02-18T12:06:53.264Z,21.90
2019-02-18T12:11:58.548Z,22.10
2019-02-18T12:17:03.846Z,21.80
2019-02-18T12:22:09.209Z,21.90
2019-02-18T12:27:14.510Z,22.10
2019-02-18T12:32:21.097Z,22.10
2019-02-18T12:37:26.411Z,22.40
2019-02-18T12:42:31.714Z,23.30
2019-02-18T12:47:37.031Z,23.80
2019-02-18T12:52:42.306Z,25.50
2019-02-18T12:57:47.616Z,25.30
2019-02-18T13:02:52.925Z,25.60
2019-02-18T13:07:58.218Z,27.10
2019-02-18T13:13:03.667Z,27.70
2019-02-18T13:18:09.074Z,28.00
2019-02-18T13:23:14.377Z,28.20
2019-02-18T13:28:19.682Z,28.50
2019-02-18T13:33:24.990Z,28.90
2019-02-18T13:38:30.564Z,28.90
2019-02-18T13:43:35.863Z,27.70
2019-02-18T13:48:41.133Z,25.80
2019-02-18T13:53:46.445Z,24.40
2019-02-18T13:58:51.760Z,23.90
2019-02-18T14:03:57.053Z,23.50
2019-02-18T14:09:02.366Z,22.70
2019-02-18T14:14:09.461Z,22.70
2019-02-18T14:19:14.824Z,22.30
2019-02-18T14:24:20.136Z,21.50
2019-02-18T14:29:25.455Z,20.60
2019-02-18T14:34:30.750Z,19.70
2019-02-18T14:39:36.073Z,19.10
2019-02-18T14:44:46.257Z,19.00
2019-02-18T14:49:51.527Z,18.80
2019-02-18T14:54:56.905Z,18.90
2019-02-18T15:00:02.692Z,18.30
2019-02-18T15:05:08.013Z,18.20
2019-02-18T15:10:14.983Z,18.30
2019-02-18T15:15:20.359Z,18.60
2019-02-18T15:20:25.657Z,19.20
2019-02-18T15:25:30.965Z,20.00
2019-02-18T15:30:36.321Z,20.50
2019-02-18T15:35:41.587Z,20.80
2019-02-18T15:40:48.682Z,21.10
2019-02-18T15:45:54.297Z,20.80
2019-02-18T15:51:00.577Z,20.10
2019-02-18T15:56:06.030Z,19.40
2019-02-18T16:01:11.465Z,19.10
2019-02-18T16:06:16.765Z,18.70
2019-02-18T16:11:22.393Z,18.30
2019-02-18T16:16:27.712Z,18.00
2019-02-18T16:21:33.313Z,18.10
2019-02-18T16:26:38.618Z,18.10
2019-02-18T16:31:43.916Z,17.50
2019-02-18T16:36:49.420Z,17.10
2019-02-18T16:41:54.702Z,17.10
2019-02-18T16:47:00.981Z,17.10
2019-02-18T16:52:06.293Z,16.80
2019-02-18T16:57:11.605Z,16.10
2019-02-18T17:02:16.883Z,16.20
2019-02-18T17:07:22.571Z,16.30
2019-02-18T17:12:28.196Z,16.20
2019-02-18T17:17:33.495Z,16.10
2019-02-18T17:22:38.801Z,16.00
2019-02-18T17:27:44.101Z,16.10
2019-02-18T17:32:49.413Z,16.10
2019-02-18T17:37:54.885Z,16.10
2019-02-18T17:43:00.501Z,15.50
2019-02-18T17:48:05.799Z,15.40
2019-02-18T17:53:12.456Z,15.30
2019-02-18T17:58:18.729Z,15.10
2019-02-18T18:03:24.088Z,15.00
2019-02-18T18:08:29.465Z,14.50
2019-02-18T18:13:34.756Z,13.90
2019-02-18T18:18:40.254Z,13.50
2019-02-18T18:23:45.638Z,13.20
2019-02-18T18:28:50.948Z,13.50
2019-02-18T18:33:57.239Z,13.90
2019-02-18T18:39:02.690Z,14.10
2019-02-18T18:44:09.179Z,14.20
2019-02-18T18:49:14.560Z,14.10
2019-02-18T18:54:19.859Z,14.10
2019-02-18T18:59:25.241Z,13.80
2019-02-18T19:04:30.917Z,13.60
2019-02-18T19:09:36.246Z,13.70
2019-02-18T19:14:42.192Z,13.40
2019-02-18T19:19:47.586Z,12.80
2019-02-18T19:24:53.026Z,12.50
2019-02-18T19:29:58.398Z,12.30
2019-02-18T19:35:06.664Z,12.10
2019-02-18T19:40:13.781Z,12.40
2019-02-18T19:45:21.883Z,12.70
2019-02-18T19:50:27.680Z,13.00
2019-02-18T19:55:33.046Z,13.50
2019-02-18T20:00:38.646Z,13.50
2019-02-18T20:05:44.029Z,13.50
2019-02-18T20:10:49.398Z,13.40
2019-02-18T20:15:54.696Z,12.70
2019-02-18T20:21:00.135Z,12.00
2019-02-18T20:26:05.435Z,11.10
2019-02-18T20:31:10.729Z,10.40
2019-02-18T20:36:16.035Z,10.30
2019-02-18T20:41:21.337Z,10.60
2019-02-18T20:46:27.058Z,10.80
2019-02-18T20:51:33.497Z,10.70
2019-02-18T20:56:38.799Z,11.20
2019-02-18T21:01:44.102Z,11.70
2019-02-18T21:06:49.404Z,12.20
2019-02-18T21:11:54.718Z,12.30
2019-02-18T21:17:00.041Z,12.50
2019-02-18T21:22:05.337Z,12.50
2019-02-18T21:27:10.651Z,12.60
2019-02-18T21:32:16.352Z,12.80
2019-02-18T21:37:21.641Z,12.90
2019-02-18T21:42:27.090Z,12.80
2019-02-18T21:47:32.379Z,12.80
2019-02-18T21:52:37.726Z,12.50
2019-02-18T21:57:43.342Z,12.50
2019-02-18T22:02:49.014Z,12.30
2019-02-18T22:07:55.072Z,12.10
2019-02-18T22:13:02.340Z,11.90
2019-02-18T22:18:07.886Z,11.80
2019-02-18T22:23:13.651Z,11.90
2019-02-18T22:28:19.694Z,11.70
2019-02-18T22:33:25.188Z,11.70
2019-02-18T22:38:30.654Z,11.90
2019-02-18T22:43:36.428Z,11.70
2019-02-18T22:48:42.057Z,11.60
2019-02-18T22:53:47.548Z,11.40
2019-02-18T22:58:53.031Z,10.60
2019-02-18T23:03:58.666Z,10.90
2019-02-18T23:09:07.697Z,11.20
2019-02-18T23:14:13.237Z,11.30
2019-02-18T23:19:18.965Z,11.10
2019-02-18T23:24:24.462Z,11.20
2019-02-18T23:29:30.167Z,11.30
2019-02-18T23:34:35.808Z,11.30
2019-02-18T23:39:41.281Z,11.40
2019-02-18T23:44:46.769Z,11.20
2019-02-18T23:49:52.248Z,11.10
2019-02-18T23:54:57.747Z,11.20
